createdAt,value
2023-05-11T00:02:10.095Z,5.3
2023-05-11T00:07:40.532Z,5.4
2023-05-11T00:12:22.828Z,5.4
2023-05-11T00:19:05.629Z,4.0
2023-05-11T00:27:43.568Z,7.2
2023-05-11T00:33:13.971Z,6.1
2023-05-11T00:37:56.349Z,5.8
2023-05-11T00:43:56.875Z,7.7
2023-05-11T00:48:10.296Z,6.5
2023-05-11T00:53:20.690Z,5.4
2023-05-11T00:58:23.063Z,5.5
2023-05-11T01:03:29.635Z,7.4
2023-05-11T01:08:55.846Z,8.0
2023-05-11T01:13:42.175Z,8.1
2023-05-11T01:18:38.631Z,6.8
2023-05-11T01:24:53.088Z,7.0
2023-05-11T01:29:25.520Z,5.6
2023-05-11T01:34:07.993Z,5.3
2023-05-11T01:39:34.418Z,7.0
2023-05-11T01:44:24.301Z,6.9
2023-05-11T01:49:30.784Z,5.9
2023-05-11T01:55:00.948Z,8.5
2023-05-11T01:59:47.290Z,7.9
2023-05-11T02:04:54.905Z,7.0
2023-05-11T02:11:18.456Z,8.3
2023-05-11T02:16:25.964Z,7.3
2023-05-11T02:21:32.321Z,8.2
2023-05-11T02:26:40.848Z,6.7
2023-05-11T02:32:11.279Z,6.4
2023-05-11T02:36:53.646Z,6.3
2023-05-11T02:41:59.991Z,6.3
2023-05-11T02:47:26.447Z,7.9
2023-05-11T02:53:42.140Z,6.5
2023-05-11T02:57:42.335Z,9.4
2023-05-11T03:02:50.626Z,6.8
2023-05-11T03:07:37.966Z,5.5
2023-05-11T03:12:44.363Z,6.9
2023-05-11T03:18:14.774Z,7.0
2023-05-11T03:22:57.120Z,8.2
2023-05-11T03:28:27.588Z,6.8
2023-05-11T03:33:09.936Z,9.3
2023-05-11T03:38:06.249Z,8.1
2023-05-11T03:43:22.653Z,6.9
2023-05-11T03:48:29.058Z,7.1
2023-05-11T03:53:25.416Z,6.8
2023-05-11T03:58:41.792Z,9.6
2023-05-11T04:03:48.453Z,8.5
2023-05-11T04:08:54.549Z,9.1
2023-05-11T04:14:00.935Z,7.8
2023-05-11T04:19:31.409Z,7.8
2023-05-11T04:24:13.708Z,7.8
2023-05-11T04:29:44.146Z,9.6
2023-05-11T04:34:26.483Z,10.1
2023-05-11T04:39:32.899Z,12.8
2023-05-11T04:44:58.295Z,9.1
2023-05-11T04:50:05.809Z,9.1
2023-05-11T04:54:55.755Z,8.8
2023-05-11T05:00:02.182Z,10.9
2023-05-11T05:05:32.554Z,8.9
2023-05-11T05:10:38.974Z,10.2
2023-05-11T05:15:11.245Z,10.6
2023-05-11T05:20:27.686Z,11.0
2023-05-11T05:25:34.110Z,9.9
2023-05-11T05:30:40.667Z,10.7
2023-05-11T05:36:20.941Z,7.8
2023-05-11T05:41:13.291Z,9.9
2023-05-11T05:45:59.850Z,8.9
2023-05-11T05:50:56.174Z,10.5
2023-05-11T05:56:20.601Z,10.7
2023-05-11T06:01:18.976Z,8.9
2023-05-11T06:06:25.328Z,7.9
2023-05-11T06:11:21.722Z,7.4
2023-05-11T06:16:39.334Z,10.3
2023-05-11T06:21:46.726Z,10.1
2023-05-11T06:26:43.210Z,7.9
2023-05-11T06:31:49.672Z,8.9
2023-05-11T06:37:05.997Z,7.8
2023-05-11T06:42:04.325Z,10.3
2023-05-11T06:47:18.784Z,7.3
2023-05-11T06:52:49.432Z,8.2
2023-05-11T06:57:21.719Z,7.0
2023-05-11T07:02:58.269Z,8.2
2023-05-11T07:07:44.728Z,6.9
2023-05-11T07:12:51.100Z,6.4
2023-05-11T07:18:11.568Z,7.1
2023-05-11T07:23:03.874Z,7.4
2023-05-11T07:28:10.260Z,6.3
2023-05-11T07:33:16.771Z,8.6
2023-05-11T07:38:48.201Z,6.4
2023-05-11T07:43:32.095Z,9.5
2023-05-11T07:48:38.493Z,5.4
2023-05-11T07:54:04.893Z,6.2
2023-05-11T07:58:51.222Z,5.4
2023-05-11T08:03:57.630Z,6.9
2023-05-11T08:09:03.991Z,4.2
2023-05-11T08:14:00.486Z,4.7
2023-05-11T08:19:17.035Z,4.1
2023-05-11T08:24:23.561Z,4.8
2023-05-11T08:29:29.857Z,4.6
2023-05-11T08:34:36.357Z,5.9
2023-05-11T08:39:46.670Z,4.5
2023-05-11T08:44:48.026Z,4.8
2023-05-11T08:49:55.416Z,5.5
2023-05-11T08:55:01.777Z,5.2
2023-05-11T09:00:32.195Z,4.7
2023-05-11T09:05:14.572Z,4.4
2023-05-11T09:10:13.686Z,4.3
2023-05-11T09:15:17.534Z,2.6
2023-05-11T09:20:33.838Z,1.5
2023-05-11T09:25:30.172Z,2.0
2023-05-11T09:30:48.186Z,1.1
2023-05-11T09:36:18.684Z,1.1
2023-05-11T09:41:01.025Z,1.1
2023-05-11T09:46:07.863Z,1.4
2023-05-11T09:51:13.825Z,1.8
2023-05-11T09:56:20.403Z,1.3
2023-05-11T10:01:16.739Z,2.3
2023-05-11T10:06:33.122Z,1.9
2023-05-11T10:11:41.696Z,1.9
2023-05-11T10:16:38.146Z,1.6
2023-05-11T10:21:53.471Z,1.8
2023-05-11T10:27:00.850Z,2.0
2023-05-11T10:32:21.540Z,2.0
2023-05-11T10:37:57.692Z,1.9
2023-05-11T10:42:09.991Z,1.6
2023-05-11T10:47:25.462Z,2.3
2023-05-11T10:52:36.615Z,1.4
2023-05-11T10:57:33.819Z,1.6
2023-05-11T11:02:39.410Z,1.7
2023-05-11T11:07:55.795Z,2.0
2023-05-11T11:13:02.193Z,2.2
2023-05-11T11:18:08.582Z,1.5
2023-05-11T11:23:14.934Z,2.4
2023-05-11T11:28:21.352Z,2.2
2023-05-11T11:33:17.829Z,2.6
2023-05-11T11:38:34.301Z,1.5
2023-05-11T11:43:41.265Z,2.5
2023-05-11T11:48:37.582Z,2.2
2023-05-11T11:53:53.977Z,1.9
2023-05-11T11:58:50.367Z,2.4
2023-05-11T12:04:06.828Z,1.8
2023-05-11T12:09:06.174Z,2.2
2023-05-11T12:14:24.156Z,2.2
2023-05-11T12:19:30.597Z,3.8
2023-05-11T12:24:36.992Z,3.2
2023-05-11T12:29:43.416Z,3.0
2023-05-11T12:34:49.763Z,2.6
2023-05-11T12:39:56.138Z,3.3
2023-05-11T12:45:26.589Z,1.9
2023-05-11T12:50:08.902Z,1.7
2023-05-11T12:55:15.283Z,2.3
2023-05-11T13:00:11.652Z,2.0
2023-05-11T13:05:28.095Z,1.5
2023-05-11T13:10:34.443Z,2.1
2023-05-11T13:15:40.838Z,2.3
2023-05-11T13:25:52.551Z,1.8
2023-05-11T13:31:01.724Z,1.5
2023-05-11T13:35:57.930Z,2.4
2023-05-11T13:41:53.140Z,2.9
2023-05-11T13:46:22.298Z,1.6
2023-05-11T13:51:28.635Z,3.3
2023-05-11T13:56:25.093Z,3.2
2023-05-11T14:01:41.596Z,2.7
2023-05-11T14:06:47.979Z,2.8
2023-05-11T14:11:54.376Z,2.6
2023-05-11T14:17:00.954Z,2.3
2023-05-11T14:22:07.127Z,2.3
2023-05-11T14:27:13.510Z,1.8
2023-05-11T14:32:19.943Z,1.9
2023-05-11T14:37:26.278Z,2.4
2023-05-11T14:42:22.780Z,1.8
2023-05-11T14:47:39.317Z,2.7
2023-05-11T14:52:45.633Z,3.3
2023-05-11T14:57:52.064Z,2.3
2023-05-11T15:03:00.218Z,1.8
2023-05-11T15:08:15.330Z,1.7
2023-05-11T15:13:14.285Z,1.5
2023-05-11T15:18:20.926Z,2.3
2023-05-11T15:23:27.340Z,2.1
2023-05-11T15:28:33.733Z,1.3
2023-05-11T15:33:41.782Z,2.5
2023-05-11T15:38:48.087Z,3.1
2023-05-11T15:43:54.431Z,1.9
2023-05-11T15:49:01.042Z,2.7
2023-05-11T15:54:08.961Z,2.3
2023-05-11T15:59:15.323Z,3.5
2023-05-11T16:04:21.719Z,3.8
2023-05-11T16:09:28.072Z,3.3
2023-05-11T16:14:36.033Z,4.4
2023-05-11T16:19:43.626Z,6.2
2023-05-11T16:24:50.000Z,5.3
2023-05-11T16:29:56.487Z,5.1
2023-05-11T16:35:04.475Z,6.9
2023-05-11T16:40:10.811Z,5.3
2023-05-11T16:45:18.739Z,5.1
2023-05-11T16:50:25.156Z,6.8
2023-05-11T16:55:21.462Z,6.0
2023-05-11T17:05:46.967Z,6.9
2023-05-11T17:10:54.312Z,7.9
2023-05-11T17:16:00.837Z,6.9
2023-05-11T17:21:08.935Z,5.9
2023-05-11T17:26:15.257Z,9.6
2023-05-11T17:31:21.765Z,10.4
2023-05-11T17:36:28.225Z,8.3
2023-05-11T17:41:36.148Z,9.3
2023-05-11T17:46:43.135Z,6.4
2023-05-11T17:51:49.538Z,8.7
2023-05-11T17:56:55.877Z,6.9
2023-05-11T18:02:02.277Z,10.5
2023-05-11T18:07:08.812Z,6.9
2023-05-11T18:12:16.745Z,8.5
2023-05-11T18:17:23.125Z,7.3
2023-05-11T18:22:29.554Z,7.5
2023-05-11T18:27:35.917Z,6.4
2023-05-11T18:32:43.980Z,6.6
2023-05-11T18:37:50.294Z,6.5
2023-05-11T18:43:26.252Z,6.5
2023-05-11T18:48:05.797Z,6.1
2023-05-11T18:53:12.207Z,6.1
2023-05-11T18:58:18.630Z,5.3
2023-05-11T19:03:26.771Z,4.5
2023-05-11T19:08:32.999Z,4.3
2023-05-11T19:14:37.431Z,7.0
2023-05-11T19:19:46.024Z,4.7
2023-05-11T19:24:52.592Z,5.4
2023-05-11T19:29:58.874Z,5.6
2023-05-11T19:35:05.242Z,4.7
2023-05-11T19:40:55.755Z,4.7
2023-05-11T19:45:38.065Z,5.0
2023-05-11T19:50:24.921Z,4.9
2023-05-11T19:55:30.905Z,4.8
2023-05-11T20:00:57.345Z,5.9
2023-05-11T20:05:43.688Z,5.4
2023-05-11T20:10:54.116Z,5.6
2023-05-11T20:16:16.649Z,5.0
2023-05-11T20:21:02.875Z,4.6
2023-05-11T20:26:09.314Z,5.5
2023-05-11T20:31:16.877Z,5.5
2023-05-11T20:36:23.251Z,4.8
2023-05-11T20:41:19.582Z,4.5
2023-05-11T20:47:15.072Z,4.5
2023-05-11T20:51:41.517Z,5.8
2023-05-11T20:56:38.740Z,5.0
2023-05-11T21:01:55.279Z,5.6
2023-05-11T21:07:01.638Z,5.9
2023-05-11T21:12:32.069Z,5.1
2023-05-11T21:17:18.721Z,6.7
2023-05-11T21:22:20.812Z,7.9
2023-05-11T21:27:27.257Z,6.0
2023-05-11T21:32:34.212Z,7.6
2023-05-11T21:37:40.609Z,6.8
2023-05-11T21:42:46.951Z,5.6
2023-05-11T21:48:45.436Z,7.2
2023-05-11T21:52:59.736Z,7.7
2023-05-11T21:58:06.199Z,10.1
2023-05-11T22:03:49.848Z,10.5
2023-05-11T22:09:21.199Z,7.9
2023-05-11T22:14:03.514Z,8.4
2023-05-11T22:20:20.444Z,8.1
2023-05-11T22:24:55.386Z,7.6
2023-05-11T22:29:21.733Z,7.2
2023-05-11T22:34:29.166Z,8.7
2023-05-11T22:39:36.682Z,8.2
2023-05-11T22:44:43.845Z,8.7
2023-05-11T22:49:50.215Z,8.0
2023-05-11T22:55:20.633Z,8.8
2023-05-11T23:00:27.033Z,9.6
2023-05-11T23:05:12.920Z,10.0
2023-05-11T23:10:19.550Z,9.0
2023-05-11T23:15:25.876Z,7.3
2023-05-11T23:20:32.397Z,7.4
2023-05-11T23:25:38.809Z,10.1
2023-05-11T23:30:45.180Z,9.1
2023-05-11T23:36:15.629Z,10.4
2023-05-11T23:40:57.937Z,11.2
2023-05-11T23:46:04.481Z,11.7
2023-05-11T23:51:10.969Z,10.2
2023-05-11T23:56:17.370Z,10.6
